Time;durP1;ratioP1;P1;durP2;ratioP2;P2;SDS_P1;SDS_P2;PMS_P1;PMS_P2;Temp;Humidity;BMP_temperature;BMP_pressure;BME280_temperature;BME280_humidity;BME280_pressure;Samples;Min_cycle;Max_cycle;Signal;HPM_P1;HPM_P2
2021/05/17 00:00:49;;;;;;;8.77;6.43;;;;;;;;;;10265808;28;20071;-68
2021/05/17 00:05:46;;;;;;;10.23;6.30;;;;;;;;;;10253878;28;20160;-68
2021/05/17 00:10:42;;;;;;;10.55;5.43;;;;;;;;;;10260978;28;20045;-67
2021/05/17 00:15:39;;;;;;;10.32;6.00;;;;;;;;;;10254577;28;20157;-68
2021/05/17 00:20:35;;;;;;;9.10;5.97;;;;;;;;;;10259603;28;20068;-68
2021/05/17 00:25:32;;;;;;;9.85;5.05;;;;;;;;;;10260644;28;20094;-67
2021/05/17 00:30:29;;;;;;;8.77;4.90;;;;;;;;;;10255072;28;20103;-68
2021/05/17 00:35:26;;;;;;;9.90;4.65;;;;;;;;;;10245371;28;20734;-68
2021/05/17 00:40:22;;;;;;;7.68;4.07;;;;;;;;;;10256642;28;20389;-68
2021/05/17 00:45:19;;;;;;;6.35;4.18;;;;;;;;;;10242458;28;20065;-68
2021/05/17 00:50:17;;;;;;;6.68;4.15;;;;;;;;;;10262870;28;20065;-67
2021/05/17 00:55:15;;;;;;;8.60;4.22;;;;;;;;;;10254163;28;20076;-68
2021/05/17 01:00:14;;;;;;;9.77;4.40;;;;;;;;;;10254918;28;20076;-68
2021/05/17 01:05:10;;;;;;;8.13;4.45;;;;;;;;;;11308786;22;20167;-68
2021/05/17 01:10:07;;;;;;;7.32;4.45;;;;;;;;;;10286990;28;20063;-68
2021/05/17 01:15:04;;;;;;;8.70;4.63;;;;;;;;;;10293239;28;20051;-69
2021/05/17 01:20:10;;;;;;;7.80;5.07;;;;;;;;;;10304392;28;20481;-68
2021/05/17 01:25:07;;;;;;;7.70;5.07;;;;;;;;;;10295369;28;20391;-68
2021/05/17 01:30:04;;;;;;;8.13;5.03;;;;;;;;;;10296467;28;20045;-67
2021/05/17 01:35:01;;;;;;;9.02;4.57;;;;;;;;;;10302828;28;20054;-68
2021/05/17 01:39:58;;;;;;;11.35;5.38;;;;;;;;;;10304248;28;20615;-68
2021/05/17 01:44:54;;;;;;;7.72;4.88;;;;;;;;;;10306260;28;20102;-68
2021/05/17 01:49:51;;;;;;;8.35;5.00;;;;;;;;;;10298043;28;20044;-68
2021/05/17 01:54:48;;;;;;;9.38;5.03;;;;;;;;;;10302173;28;20033;-69
2021/05/17 01:59:44;;;;;;;9.27;5.55;;;;;;;;;;10295347;28;20162;-69
2021/05/17 02:04:41;;;;;;;9.43;5.38;;;;;;;;;;10299011;28;20554;-68
2021/05/17 02:09:37;;;;;;;8.63;4.70;;;;;;;;;;10295259;28;20069;-69
2021/05/17 02:14:35;;;;;;;10.63;5.50;;;;;;;;;;10296761;28;20564;-69
2021/05/17 02:19:31;;;;;;;10.27;5.85;;;;;;;;;;10294789;28;20052;-69
2021/05/17 02:24:29;;;;;;;8.27;5.40;;;;;;;;;;10286257;28;20049;-69
2021/05/17 02:29:27;;;;;;;8.20;6.00;;;;;;;;;;10292666;28;20048;-68
2021/05/17 02:34:24;;;;;;;8.07;4.82;;;;;;;;;;10299168;28;20049;-66
2021/05/17 02:39:20;;;;;;;8.48;5.88;;;;;;;;;;10303090;28;20106;-69
2021/05/17 02:44:16;;;;;;;9.95;6.22;;;;;;;;;;10302755;28;20102;-68
2021/05/17 02:49:13;;;;;;;9.13;5.85;;;;;;;;;;10304697;28;20067;-68
2021/05/17 02:54:28;;;;;;;9.68;5.22;;;;;;;;;;10304437;28;20078;-68
2021/05/17 02:59:38;;;;;;;11.23;5.30;;;;;;;;;;10308533;28;20087;-69
2021/05/17 03:04:37;;;;;;;7.85;5.22;;;;;;;;;;10308399;28;20053;-69
2021/05/17 03:09:34;;;;;;;14.77;5.55;;;;;;;;;;10306904;28;20556;-67
2021/05/17 03:14:30;;;;;;;9.50;5.50;;;;;;;;;;10302608;28;20556;-67
2021/05/17 03:19:27;;;;;;;8.48;5.75;;;;;;;;;;10299302;28;20494;-68
2021/05/17 03:24:24;;;;;;;10.55;6.07;;;;;;;;;;10301223;28;20045;-69
2021/05/17 03:29:20;;;;;;;10.32;5.75;;;;;;;;;;10309419;28;20056;-69
2021/05/17 03:34:16;;;;;;;11.48;7.07;;;;;;;;;;10317902;28;20040;-69
2021/05/17 03:39:13;;;;;;;9.68;6.45;;;;;;;;;;10306232;28;20452;-69
2021/05/17 03:44:09;;;;;;;13.55;6.82;;;;;;;;;;10303964;28;20075;-68
2021/05/17 03:49:06;;;;;;;10.07;6.57;;;;;;;;;;10294943;28;20037;-68
2021/05/17 03:54:02;;;;;;;11.65;6.07;;;;;;;;;;10299017;28;20086;-66
2021/05/17 03:58:58;;;;;;;9.70;5.88;;;;;;;;;;10298204;28;20409;-68
2021/05/17 04:03:56;;;;;;;10.50;6.57;;;;;;;;;;10301193;28;20045;-68
2021/05/17 04:14:07;;;;;;;10.20;6.43;;;;;;;;;;10300588;28;20040;-68
2021/05/17 04:19:04;;;;;;;9.85;5.95;;;;;;;;;;10302676;28;20090;-68
2021/05/17 04:24:00;;;;;;;11.30;6.85;;;;;;;;;;10296596;28;20070;-68
2021/05/17 04:28:56;;;;;;;10.00;6.10;;;;;;;;;;10299260;28;20590;-68
2021/05/17 04:33:53;;;;;;;9.50;6.30;;;;;;;;;;10298695;28;20506;-69
2021/05/17 04:38:49;;;;;;;12.75;7.35;;;;;;;;;;10296055;28;20056;-69
2021/05/17 04:43:46;;;;;;;12.00;6.95;;;;;;;;;;10302144;28;20046;-69
2021/05/17 04:48:49;;;;;;;11.05;6.30;;;;;;;;;;10300317;28;20113;-70
2021/05/17 04:53:46;;;;;;;9.77;5.47;;;;;;;;;;10304713;28;20043;-69
2021/05/17 04:58:42;;;;;;;11.18;6.60;;;;;;;;;;10309116;28;20567;-69
2021/05/17 05:03:39;;;;;;;11.63;5.85;;;;;;;;;;10308945;28;20466;-70
2021/05/17 05:08:35;;;;;;;9.70;5.55;;;;;;;;;;10300535;28;20044;-67
2021/05/17 05:13:32;;;;;;;7.13;4.97;;;;;;;;;;10302060;28;20127;-67
2021/05/17 05:18:28;;;;;;;8.95;5.65;;;;;;;;;;10293158;28;20049;-68
2021/05/17 05:23:25;;;;;;;12.50;6.07;;;;;;;;;;10299754;28;20044;-67
2021/05/17 05:28:24;;;;;;;12.88;6.53;;;;;;;;;;10305413;28;20052;-67
2021/05/17 05:33:22;;;;;;;12.55;6.65;;;;;;;;;;10296195;28;20510;-67
2021/05/17 05:38:19;;;;;;;11.32;6.57;;;;;;;;;;10295203;28;20090;-67
2021/05/17 05:43:18;;;;;;;11.90;6.43;;;;;;;;;;10274813;28;20055;-67
2021/05/17 05:48:14;;;;;;;11.95;7.10;;;;;;;;;;10296626;28;20056;-66
2021/05/17 05:53:13;;;;;;;12.48;7.03;;;;;;;;;;10277228;28;20143;-68
2021/05/17 05:58:10;;;;;;;12.32;6.82;;;;;;;;;;10287751;28;20037;-68
2021/05/17 06:03:06;;;;;;;14.68;7.07;;;;;;;;;;10301881;28;20486;-68
2021/05/17 06:08:04;;;;;;;10.60;6.68;;;;;;;;;;10286529;28;20044;-68
2021/05/17 06:13:00;;;;;;;14.52;7.63;;;;;;;;;;10294222;28;20045;-68
2021/05/17 06:17:57;;;;;;;13.57;7.53;;;;;;;;;;10288504;28;20041;-68
2021/05/17 06:22:53;;;;;;;17.50;7.70;;;;;;;;;;10307742;28;20045;-68
2021/05/17 06:27:50;;;;;;;12.60;7.28;;;;;;;;;;10294692;28;20044;-67
2021/05/17 06:32:47;;;;;;;12.10;7.47;;;;;;;;;;10282630;28;20037;-68
2021/05/17 06:37:43;;;;;;;10.45;7.20;;;;;;;;;;10275593;28;20087;-67
2021/05/17 06:42:40;;;;;;;10.80;6.95;;;;;;;;;;10287491;28;20268;-68
2021/05/17 06:47:37;;;;;;;11.30;6.50;;;;;;;;;;10283354;28;20075;-67
2021/05/17 06:52:34;;;;;;;11.45;6.13;;;;;;;;;;10279572;28;20095;-67
2021/05/17 06:57:59;;;;;;;11.93;6.47;;;;;;;;;;10274135;28;20045;-67
2021/05/17 07:02:51;;;;;;;14.98;7.28;;;;;;;;;;10301086;28;20103;-67
2021/05/17 07:11:32;;;;;;;16.70;7.88;;;;;;;;;;10270850;28;20053;-67
2021/05/17 07:13:10;;;;;;;12.18;8.10;;;;;;;;;;10307773;28;20056;-67
2021/05/17 07:18:07;;;;;;;13.50;7.57;;;;;;;;;;10281110;28;20041;-67
2021/05/17 07:28:18;;;;;;;15.75;8.82;;;;;;;;;;10289742;28;20119;-67
2021/05/17 07:33:15;;;;;;;15.60;8.77;;;;;;;;;;10277099;28;20095;-67
2021/05/17 07:38:12;;;;;;;14.20;8.25;;;;;;;;;;10288151;28;20045;-67
2021/05/17 07:43:08;;;;;;;13.88;8.55;;;;;;;;;;10279512;28;20076;-67
2021/05/17 07:48:15;;;;;;;11.20;6.85;;;;;;;;;;10291876;28;20070;-67
2021/05/17 07:53:12;;;;;;;12.27;7.82;;;;;;;;;;10288058;28;20049;-67
2021/05/17 07:58:08;;;;;;;12.55;7.10;;;;;;;;;;10286230;28;20438;-66
2021/05/17 08:03:05;;;;;;;11.40;7.10;;;;;;;;;;10288541;28;20065;-68
2021/05/17 08:08:21;;;;;;;11.63;6.60;;;;;;;;;;10288607;28;20041;-67
2021/05/17 08:13:18;;;;;;;12.15;7.28;;;;;;;;;;10293884;28;20106;-67
2021/05/17 08:18:23;;;;;;;13.45;7.30;;;;;;;;;;10285180;28;20418;-69
2021/05/17 08:23:19;;;;;;;11.25;5.25;;;;;;;;;;10278848;28;20079;-67
2021/05/17 08:28:16;;;;;;;8.80;5.20;;;;;;;;;;10281375;28;20130;-67
2021/05/17 08:33:13;;;;;;;10.18;4.85;;;;;;;;;;10281973;28;20518;-67
2021/05/17 08:38:09;;;;;;;10.50;4.20;;;;;;;;;;10285006;28;20049;-67
2021/05/17 08:43:06;;;;;;;11.02;4.55;;;;;;;;;;10299466;28;20048;-67
2021/05/17 08:48:03;;;;;;;10.02;4.72;;;;;;;;;;10289947;28;20505;-67
2021/05/17 08:53:00;;;;;;;9.63;4.00;;;;;;;;;;10291309;28;20800;-67
2021/05/17 08:57:56;;;;;;;10.38;4.13;;;;;;;;;;10287977;28;20489;-67
2021/05/17 09:02:53;;;;;;;7.68;3.55;;;;;;;;;;10291411;28;20053;-67
2021/05/17 09:07:50;;;;;;;6.22;2.45;;;;;;;;;;10281127;28;20041;-67
2021/05/17 09:12:58;;;;;;;9.40;2.80;;;;;;;;;;10282863;28;20505;-67
2021/05/17 09:17:58;;;;;;;9.38;2.83;;;;;;;;;;10281895;28;20107;-67
2021/05/17 09:23:05;;;;;;;7.82;2.92;;;;;;;;;;11218903;22;20128;-71
2021/05/17 09:28:02;;;;;;;7.13;2.83;;;;;;;;;;10290093;28;20068;-70
2021/05/17 09:32:58;;;;;;;7.05;2.42;;;;;;;;;;10290267;28;20079;-70
2021/05/17 09:38:00;;;;;;;8.40;2.25;;;;;;;;;;10300862;28;20033;-71
2021/05/17 09:43:05;;;;;;;8.18;2.72;;;;;;;;;;10300466;28;20144;-70
2021/05/17 09:48:13;;;;;;;5.93;1.90;;;;;;;;;;10294247;28;20057;-70
2021/05/17 09:53:23;;;;;;;7.43;1.98;;;;;;;;;;10297069;28;20569;-70
2021/05/17 09:58:46;;;;;;;4.95;1.92;;;;;;;;;;10302446;28;20045;-70
2021/05/17 10:03:46;;;;;;;7.45;2.17;;;;;;;;;;10283357;28;20053;-71
2021/05/17 10:08:44;;;;;;;8.23;1.90;;;;;;;;;;10301434;28;20048;-70
2021/05/17 10:13:41;;;;;;;12.60;2.10;;;;;;;;;;10297706;28;20078;-70
2021/05/17 10:18:38;;;;;;;5.53;2.13;;;;;;;;;;10301925;28;20068;-70
2021/05/17 10:23:36;;;;;;;6.13;2.10;;;;;;;;;;10307931;28;20524;-70
2021/05/17 10:28:34;;;;;;;5.50;2.10;;;;;;;;;;10302803;28;20048;-70
2021/05/17 10:33:30;;;;;;;7.63;3.00;;;;;;;;;;10304089;28;20123;-70
2021/05/17 10:43:49;;;;;;;7.30;2.78;;;;;;;;;;10299359;28;20543;-70
2021/05/17 10:48:45;;;;;;;5.63;1.77;;;;;;;;;;10299140;28;20098;-71
2021/05/17 10:53:46;;;;;;;5.65;1.90;;;;;;;;;;10299328;28;20082;-70
2021/05/17 11:04:26;;;;;;;7.37;2.00;;;;;;;;;;10299014;28;20040;-70
2021/05/17 11:09:23;;;;;;;3.15;1.05;;;;;;;;;;10299964;28;20048;-70
2021/05/17 11:14:20;;;;;;;2.75;0.80;;;;;;;;;;10304455;28;20479;-70
2021/05/17 11:19:17;;;;;;;9.80;2.05;;;;;;;;;;10293458;28;20505;-70
2021/05/17 11:24:13;;;;;;;5.80;1.60;;;;;;;;;;10293707;28;20524;-69
2021/05/17 11:29:09;;;;;;;7.50;3.00;;;;;;;;;;10299388;28;20514;-69
2021/05/17 11:34:10;;;;;;;5.80;2.83;;;;;;;;;;10301349;28;20066;-69
2021/05/17 11:39:19;;;;;;;11.70;4.07;;;;;;;;;;10283860;28;20037;-70
2021/05/17 11:44:22;;;;;;;7.88;3.45;;;;;;;;;;10293298;28;20078;-70
2021/05/17 11:49:19;;;;;;;10.82;4.13;;;;;;;;;;10297335;28;20098;-71
2021/05/17 11:54:16;;;;;;;7.80;4.50;;;;;;;;;;10309871;28;20036;-70
2021/05/17 11:59:12;;;;;;;7.97;3.38;;;;;;;;;;10299046;28;20051;-70
2021/05/17 12:04:10;;;;;;;4.00;1.80;;;;;;;;;;10301207;28;20040;-70
2021/05/17 12:09:06;;;;;;;3.80;1.25;;;;;;;;;;10307874;28;20048;-69
2021/05/17 12:14:07;;;;;;;6.45;1.70;;;;;;;;;;10297078;28;20049;-70
2021/05/17 12:19:03;;;;;;;3.33;1.15;;;;;;;;;;10313487;28;20702;-70
2021/05/17 12:24:00;;;;;;;4.80;1.60;;;;;;;;;;10309216;28;20037;-70
2021/05/17 12:29:02;;;;;;;4.40;1.50;;;;;;;;;;10296248;28;20043;-70
2021/05/17 12:33:59;;;;;;;4.50;1.90;;;;;;;;;;10309220;28;20048;-70
2021/05/17 12:38:56;;;;;;;4.55;1.77;;;;;;;;;;10310022;28;20037;-70
2021/05/17 12:43:53;;;;;;;6.57;2.38;;;;;;;;;;10309564;28;20037;-70
2021/05/17 12:48:51;;;;;;;5.10;1.63;;;;;;;;;;10306882;28;20040;-70
2021/05/17 12:53:48;;;;;;;3.28;1.35;;;;;;;;;;10309093;28;20044;-70
2021/05/17 12:58:45;;;;;;;4.57;1.25;;;;;;;;;;10306000;28;20094;-69
2021/05/17 13:03:43;;;;;;;1.67;0.90;;;;;;;;;;10301185;28;20072;-69
2021/05/17 13:08:39;;;;;;;4.82;1.20;;;;;;;;;;10290566;28;20122;-70
2021/05/17 13:13:47;;;;;;;3.00;1.10;;;;;;;;;;10307046;28;20079;-70
2021/05/17 13:25:10;;;;;;;5.20;1.67;;;;;;;;;;10291902;28;20057;-70
2021/05/17 13:30:05;;;;;;;3.75;1.67;;;;;;;;;;10298697;28;20504;-70
2021/05/17 13:35:02;;;;;;;2.67;1.40;;;;;;;;;;10297590;28;20445;-70
2021/05/17 13:39:58;;;;;;;4.55;1.83;;;;;;;;;;10301596;28;20098;-70
2021/05/17 13:44:55;;;;;;;3.42;1.38;;;;;;;;;;10306193;28;20041;-70
2021/05/17 13:49:52;;;;;;;5.18;2.10;;;;;;;;;;10300251;28;20067;-70
2021/05/17 13:54:48;;;;;;;5.28;1.60;;;;;;;;;;10298190;28;20048;-70
2021/05/17 13:59:44;;;;;;;3.72;1.40;;;;;;;;;;10298857;28;20106;-70
2021/05/17 14:04:41;;;;;;;8.50;1.95;;;;;;;;;;10291980;28;20068;-69
2021/05/17 14:09:37;;;;;;;4.72;1.60;;;;;;;;;;10288875;28;20075;-70
2021/05/17 14:14:34;;;;;;;3.88;1.80;;;;;;;;;;10298987;28;20045;-69
2021/05/17 14:19:30;;;;;;;5.72;2.30;;;;;;;;;;10306849;28;20094;-69
2021/05/17 14:24:27;;;;;;;5.18;1.98;;;;;;;;;;10287286;28;20048;-69
2021/05/17 14:29:23;;;;;;;5.47;1.85;;;;;;;;;;10297983;28;20082;-71
2021/05/17 14:34:20;;;;;;;4.90;1.45;;;;;;;;;;10295649;28;20040;-70
2021/05/17 14:39:17;;;;;;;5.32;2.67;;;;;;;;;;10292326;28;20090;-71
2021/05/17 14:44:14;;;;;;;9.43;2.20;;;;;;;;;;10303967;28;20060;-70
2021/05/17 14:49:10;;;;;;;5.15;2.30;;;;;;;;;;10308159;28;20094;-70
2021/05/17 14:54:26;;;;;;;3.65;2.03;;;;;;;;;;10305381;28;20150;-71
2021/05/17 14:59:23;;;;;;;7.63;2.90;;;;;;;;;;10299637;28;20087;-71
2021/05/17 15:04:19;;;;;;;5.32;2.70;;;;;;;;;;10304935;28;20094;-71
2021/05/17 15:09:16;;;;;;;4.68;3.03;;;;;;;;;;10291380;28;20068;-69
2021/05/17 15:14:12;;;;;;;5.53;2.80;;;;;;;;;;10304474;28;20065;-69
2021/05/17 15:19:08;;;;;;;6.38;2.67;;;;;;;;;;10292812;28;20045;-71
2021/05/17 15:24:05;;;;;;;6.05;3.30;;;;;;;;;;10302705;28;20049;-69
2021/05/17 15:29:02;;;;;;;5.00;3.13;;;;;;;;;;10311213;28;20201;-70
2021/05/17 15:33:58;;;;;;;8.70;3.53;;;;;;;;;;10310672;28;20036;-70
2021/05/17 15:38:54;;;;;;;3.88;2.13;;;;;;;;;;10305524;28;20080;-70
2021/05/17 15:43:51;;;;;;;4.65;2.47;;;;;;;;;;10302873;28;20036;-69
2021/05/17 15:48:47;;;;;;;4.05;2.35;;;;;;;;;;10303299;28;20426;-70
2021/05/17 15:53:43;;;;;;;3.45;2.15;;;;;;;;;;10295845;28;20040;-71
2021/05/17 15:58:40;;;;;;;4.57;2.20;;;;;;;;;;10298906;28;20098;-69
2021/05/17 16:03:36;;;;;;;4.75;2.30;;;;;;;;;;10308240;28;20044;-71
2021/05/17 16:08:33;;;;;;;4.10;2.70;;;;;;;;;;10308138;28;20044;-71
2021/05/17 16:18:45;;;;;;;5.38;2.90;;;;;;;;;;10308612;28;20045;-70
2021/05/17 16:23:42;;;;;;;8.10;3.67;;;;;;;;;;10304402;28;20037;-71
2021/05/17 16:28:41;;;;;;;5.63;3.50;;;;;;;;;;10294479;28;20056;-71
2021/05/17 16:33:37;;;;;;;4.22;2.45;;;;;;;;;;10300113;28;20071;-69
2021/05/17 16:38:34;;;;;;;4.63;2.42;;;;;;;;;;10312042;28;20044;-69
2021/05/17 16:43:30;;;;;;;4.60;2.38;;;;;;;;;;10295510;28;20064;-70
2021/05/17 16:49:05;;;;;;;4.25;2.10;;;;;;;;;;10305431;28;20101;-70
2021/05/17 16:54:02;;;;;;;5.78;2.20;;;;;;;;;;10305100;28;20477;-70
2021/05/17 16:58:59;;;;;;;4.30;2.88;;;;;;;;;;10303294;28;20080;-70
2021/05/17 17:03:55;;;;;;;5.53;2.92;;;;;;;;;;10295360;28;20602;-70
2021/05/17 17:08:51;;;;;;;4.32;2.78;;;;;;;;;;10301832;28;20079;-71
2021/05/17 17:13:49;;;;;;;7.22;3.65;;;;;;;;;;10305233;28;20106;-70
2021/05/17 17:18:48;;;;;;;6.38;3.58;;;;;;;;;;10285830;28;20041;-69
2021/05/17 17:23:45;;;;;;;5.63;2.95;;;;;;;;;;10304310;28;20044;-70
2021/05/17 17:28:42;;;;;;;4.63;2.22;;;;;;;;;;10287783;28;20049;-70
2021/05/17 17:33:38;;;;;;;5.90;2.70;;;;;;;;;;10302531;28;20048;-69
2021/05/17 17:38:34;;;;;;;6.22;2.90;;;;;;;;;;10288394;28;20068;-70
2021/05/17 17:43:32;;;;;;;7.22;3.58;;;;;;;;;;10298596;28;20041;-70
2021/05/17 17:48:31;;;;;;;6.95;2.72;;;;;;;;;;10294165;28;20044;-70
2021/05/17 17:53:27;;;;;;;6.45;3.97;;;;;;;;;;10297710;28;20453;-70
2021/05/17 17:58:23;;;;;;;6.53;4.20;;;;;;;;;;10300584;28;20493;-70
2021/05/17 18:03:23;;;;;;;6.55;4.10;;;;;;;;;;10283993;28;20052;-70
2021/05/17 18:08:19;;;;;;;6.63;4.57;;;;;;;;;;10281625;28;20037;-70
2021/05/17 18:13:16;;;;;;;6.10;3.78;;;;;;;;;;10297940;28;20040;-70
2021/05/17 18:18:12;;;;;;;5.50;3.40;;;;;;;;;;10292294;28;20547;-70
2021/05/17 18:23:09;;;;;;;5.28;3.25;;;;;;;;;;10295257;28;20567;-70
2021/05/17 18:28:06;;;;;;;5.65;3.50;;;;;;;;;;10302415;28;20052;-70
2021/05/17 18:33:04;;;;;;;8.50;4.72;;;;;;;;;;10295030;28;20036;-70
2021/05/17 18:38:01;;;;;;;7.18;4.22;;;;;;;;;;10303827;28;20105;-70
2021/05/17 18:43:04;;;;;;;7.50;3.50;;;;;;;;;;10294859;28;20041;-70
2021/05/17 18:48:02;;;;;;;4.95;3.00;;;;;;;;;;10297132;28;20075;-70
2021/05/17 18:53:01;;;;;;;5.03;2.92;;;;;;;;;;10299065;28;20127;-70
2021/05/17 18:57:57;;;;;;;4.20;2.45;;;;;;;;;;10292449;28;20445;-70
2021/05/17 19:02:54;;;;;;;5.85;3.42;;;;;;;;;;10294175;28;20068;-69
2021/05/17 19:07:50;;;;;;;5.32;3.00;;;;;;;;;;10300451;28;20134;-69
2021/05/17 19:12:47;;;;;;;4.15;2.30;;;;;;;;;;10293715;28;20684;-70
2021/05/17 19:17:44;;;;;;;3.67;1.90;;;;;;;;;;10306157;28;20088;-70
2021/05/17 19:22:40;;;;;;;4.10;2.05;;;;;;;;;;10286158;28;20099;-70
2021/05/17 19:27:40;;;;;;;3.58;2.15;;;;;;;;;;10295437;28;20048;-70
2021/05/17 19:32:36;;;;;;;4.03;2.45;;;;;;;;;;10301508;28;20076;-70
2021/05/17 19:37:33;;;;;;;4.82;2.13;;;;;;;;;;10310004;28;20040;-70
2021/05/17 19:42:29;;;;;;;6.13;2.65;;;;;;;;;;10302604;28;20064;-70
2021/05/17 19:47:26;;;;;;;5.22;2.08;;;;;;;;;;10295497;28;20052;-70
2021/05/17 19:52:22;;;;;;;5.65;2.00;;;;;;;;;;10299411;28;20041;-70
2021/05/17 19:57:20;;;;;;;3.40;1.75;;;;;;;;;;10292038;28;20039;-70
2021/05/17 20:02:17;;;;;;;4.75;2.00;;;;;;;;;;10300441;28;20048;-70
2021/05/17 20:07:14;;;;;;;6.70;2.10;;;;;;;;;;10306580;28;20113;-69
2021/05/17 20:12:11;;;;;;;4.95;1.80;;;;;;;;;;10310703;28;20037;-69
2021/05/17 20:17:08;;;;;;;4.45;2.30;;;;;;;;;;10304211;28;20041;-69
2021/05/17 20:22:04;;;;;;;5.63;2.08;;;;;;;;;;10309359;28;20139;-69
2021/05/17 20:27:01;;;;;;;10.00;2.42;;;;;;;;;;10303755;28;20676;-69
2021/05/17 20:31:58;;;;;;;4.70;2.20;;;;;;;;;;10302719;28;20045;-69
2021/05/17 20:36:55;;;;;;;4.22;2.22;;;;;;;;;;10297491;28;20056;-69
2021/05/17 20:41:52;;;;;;;4.80;2.58;;;;;;;;;;10301030;28;20037;-70
2021/05/17 20:46:51;;;;;;;4.55;2.53;;;;;;;;;;10301465;28;20045;-69
2021/05/17 20:51:47;;;;;;;4.82;2.85;;;;;;;;;;10301723;28;20097;-69
2021/05/17 20:56:44;;;;;;;5.82;3.17;;;;;;;;;;10301748;28;20036;-69
2021/05/17 21:01:40;;;;;;;5.38;2.70;;;;;;;;;;10297426;28;20078;-69
2021/05/17 21:06:36;;;;;;;5.40;3.08;;;;;;;;;;10301541;28;20102;-69
2021/05/17 21:11:34;;;;;;;4.68;2.65;;;;;;;;;;10298088;28;20049;-71
2021/05/17 21:16:30;;;;;;;6.85;3.17;;;;;;;;;;10301761;28;20095;-68
2021/05/17 21:21:27;;;;;;;7.63;3.92;;;;;;;;;;10302853;28;20075;-68
2021/05/17 21:26:23;;;;;;;6.47;4.07;;;;;;;;;;10303971;28;20131;-65
2021/05/17 21:31:20;;;;;;;5.00;3.05;;;;;;;;;;10298188;28;20052;-65
2021/05/17 21:36:16;;;;;;;6.03;2.38;;;;;;;;;;10305547;28;20056;-65
2021/05/17 21:41:13;;;;;;;3.63;2.10;;;;;;;;;;10302986;28;20465;-68
2021/05/17 21:46:10;;;;;;;4.35;2.53;;;;;;;;;;10304295;28;20048;-67
2021/05/17 21:51:06;;;;;;;4.10;2.30;;;;;;;;;;10299717;28;20041;-68
2021/05/17 21:56:03;;;;;;;8.93;2.67;;;;;;;;;;10300207;28;20517;-67
2021/05/17 22:00:59;;;;;;;4.07;2.70;;;;;;;;;;10297757;28;20044;-68
2021/05/17 22:05:55;;;;;;;6.10;4.05;;;;;;;;;;10307203;28;20437;-68
2021/05/17 22:10:53;;;;;;;5.25;3.47;;;;;;;;;;10298757;28;20437;-65
2021/05/17 22:20:47;;;;;;;6.85;4.80;;;;;;;;;;10299497;28;20044;-69
2021/05/17 22:25:43;;;;;;;8.65;4.65;;;;;;;;;;10296428;28;20040;-69
2021/05/17 22:30:39;;;;;;;7.40;4.90;;;;;;;;;;10303953;28;20044;-69
2021/05/17 22:35:36;;;;;;;8.80;5.30;;;;;;;;;;10294455;28;20465;-69
2021/05/17 22:40:32;;;;;;;8.02;5.30;;;;;;;;;;10301029;28;20063;-67
2021/05/17 22:45:29;;;;;;;9.18;6.45;;;;;;;;;;10297254;28;20044;-67
2021/05/17 22:50:28;;;;;;;12.18;8.05;;;;;;;;;;10291943;28;20037;-68
2021/05/17 22:55:24;;;;;;;9.70;7.90;;;;;;;;;;10298456;28;20410;-69
2021/05/17 23:00:32;;;;;;;9.55;7.32;;;;;;;;;;10297255;28;20094;-69
2021/05/17 23:05:29;;;;;;;12.25;8.10;;;;;;;;;;10298652;28;20502;-69
2021/05/17 23:10:25;;;;;;;14.50;9.82;;;;;;;;;;10306942;28;20052;-68
2021/05/17 23:15:22;;;;;;;17.02;10.80;;;;;;;;;;10303582;28;20571;-66
2021/05/17 23:30:35;;;;;;;21.65;11.23;;;;;;;;;;10302124;28;20095;-67
2021/05/17 23:35:32;;;;;;;20.10;10.70;;;;;;;;;;10305270;28;20037;-68
2021/05/17 23:40:31;;;;;;;25.70;11.93;;;;;;;;;;10301451;28;20084;-69
2021/05/17 23:45:27;;;;;;;18.85;10.75;;;;;;;;;;10302348;28;20076;-69
2021/05/17 23:50:24;;;;;;;20.30;9.90;;;;;;;;;;10294973;28;20471;-70
2021/05/17 23:55:21;;;;;;;16.25;8.57;;;;;;;;;;10307884;28;20037;-70
